sensor_id;sensor_type;location;lat;lon;timestamp;temperature;humidity
42187;DHT22;27858;51.414;0.018;2023-06-10T00:00:29;18.60;99.90
42187;DHT22;27858;51.414;0.018;2023-06-10T00:02:58;18.50;99.90
42187;DHT22;27858;51.414;0.018;2023-06-10T00:05:26;18.50;99.90
42187;DHT22;27858;51.414;0.018;2023-06-10T00:07:56;18.40;99.90
42187;DHT22;27858;51.414;0.018;2023-06-10T00:10:24;18.40;99.90
42187;DHT22;27858;51.414;0.018;2023-06-10T00:12:51;18.40;99.90
42187;DHT22;27858;51.414;0.018;2023-06-10T00:15:18;18.30;99.90
42187;DHT22;27858;51.414;0.018;2023-06-10T00:17:45;18.30;99.90
42187;DHT22;27858;51.414;0.018;2023-06-10T00:20:13;18.20;99.90
42187;DHT22;27858;51.414;0.018;2023-06-10T00:22:39;18.20;99.90
42187;DHT22;27858;51.414;0.018;2023-06-10T00:25:09;18.20;99.90
42187;DHT22;27858;51.414;0.018;2023-06-10T00:27:37;18.10;99.90
42187;DHT22;27858;51.414;0.018;2023-06-10T00:30:05;18.00;99.90
42187;DHT22;27858;51.414;0.018;2023-06-10T00:32:34;17.90;99.90
42187;DHT22;27858;51.414;0.018;2023-06-10T00:35:02;17.90;99.90
42187;DHT22;27858;51.414;0.018;2023-06-10T00:37:29;17.80;99.90
42187;DHT22;27858;51.414;0.018;2023-06-10T00:39:56;17.80;99.90
42187;DHT22;27858;51.414;0.018;2023-06-10T00:42:23;17.70;99.90
42187;DHT22;27858;51.414;0.018;2023-06-10T00:44:51;17.70;99.90
42187;DHT22;27858;51.414;0.018;2023-06-10T00:47:18;17.70;99.90
42187;DHT22;27858;51.414;0.018;2023-06-10T00:49:46;17.70;99.90
42187;DHT22;27858;51.414;0.018;2023-06-10T00:52:14;17.60;99.90
42187;DHT22;27858;51.414;0.018;2023-06-10T00:54:42;17.60;99.90
42187;DHT22;27858;51.414;0.018;2023-06-10T00:57:09;17.50;99.90
42187;DHT22;27858;51.414;0.018;2023-06-10T00:59:36;17.50;99.90
42187;DHT22;27858;51.414;0.018;2023-06-10T01:02:03;17.40;99.90
42187;DHT22;27858;51.414;0.018;2023-06-10T01:04:30;17.40;99.90
42187;DHT22;27858;51.414;0.018;2023-06-10T01:07:25;17.30;99.90
42187;DHT22;27858;51.414;0.018;2023-06-10T01:09:59;17.30;99.90
42187;DHT22;27858;51.414;0.018;2023-06-10T01:12:50;17.30;99.90
42187;DHT22;27858;51.414;0.018;2023-06-10T01:15:19;17.20;99.90
42187;DHT22;27858;51.414;0.018;2023-06-10T01:18:08;17.20;99.90
42187;DHT22;27858;51.414;0.018;2023-06-10T01:20:37;17.20;99.90
42187;DHT22;27858;51.414;0.018;2023-06-10T01:23:08;17.10;99.90
42187;DHT22;27858;51.414;0.018;2023-06-10T01:25:38;17.10;99.90
42187;DHT22;27858;51.414;0.018;2023-06-10T01:28:14;17.00;99.90
42187;DHT22;27858;51.414;0.018;2023-06-10T01:33:19;17.00;99.90
42187;DHT22;27858;51.414;0.018;2023-06-10T01:35:48;16.90;99.90
42187;DHT22;27858;51.414;0.018;2023-06-10T01:38:17;16.90;99.90
42187;DHT22;27858;51.414;0.018;2023-06-10T01:40:47;16.90;99.90
42187;DHT22;27858;51.414;0.018;2023-06-10T01:43:14;16.80;99.90
42187;DHT22;27858;51.414;0.018;2023-06-10T01:45:41;16.80;99.90
42187;DHT22;27858;51.414;0.018;2023-06-10T01:48:08;16.80;99.90
42187;DHT22;27858;51.414;0.018;2023-06-10T01:50:35;16.80;99.90
42187;DHT22;27858;51.414;0.018;2023-06-10T01:53:03;16.70;99.90
42187;DHT22;27858;51.414;0.018;2023-06-10T01:55:29;16.70;99.90
42187;DHT22;27858;51.414;0.018;2023-06-10T01:57:56;16.70;99.90
42187;DHT22;27858;51.414;0.018;2023-06-10T02:00:23;16.70;99.90
42187;DHT22;27858;51.414;0.018;2023-06-10T02:02:50;16.50;99.90
42187;DHT22;27858;51.414;0.018;2023-06-10T02:05:17;16.50;99.90
42187;DHT22;27858;51.414;0.018;2023-06-10T02:07:44;16.50;99.90
42187;DHT22;27858;51.414;0.018;2023-06-10T02:10:11;16.50;99.90
42187;DHT22;27858;51.414;0.018;2023-06-10T02:12:38;16.50;99.90
42187;DHT22;27858;51.414;0.018;2023-06-10T02:15:05;16.50;99.90
42187;DHT22;27858;51.414;0.018;2023-06-10T02:17:32;16.50;99.90
42187;DHT22;27858;51.414;0.018;2023-06-10T02:19:59;16.40;99.90
42187;DHT22;27858;51.414;0.018;2023-06-10T02:22:33;16.40;99.90
42187;DHT22;27858;51.414;0.018;2023-06-10T02:25:00;16.40;99.90
42187;DHT22;27858;51.414;0.018;2023-06-10T02:27:27;16.50;99.90
42187;DHT22;27858;51.414;0.018;2023-06-10T02:29:54;16.40;99.90
42187;DHT22;27858;51.414;0.018;2023-06-10T02:32:20;16.40;99.90
42187;DHT22;27858;51.414;0.018;2023-06-10T02:34:47;16.30;99.90
42187;DHT22;27858;51.414;0.018;2023-06-10T02:37:15;16.30;99.90
42187;DHT22;27858;51.414;0.018;2023-06-10T02:39:42;16.30;99.90
42187;DHT22;27858;51.414;0.018;2023-06-10T02:42:09;16.20;99.90
42187;DHT22;27858;51.414;0.018;2023-06-10T02:44:38;16.20;99.90
42187;DHT22;27858;51.414;0.018;2023-06-10T02:47:05;16.10;99.90
42187;DHT22;27858;51.414;0.018;2023-06-10T02:49:32;16.10;99.90
42187;DHT22;27858;51.414;0.018;2023-06-10T02:51:58;16.00;99.90
42187;DHT22;27858;51.414;0.018;2023-06-10T02:54:26;16.00;99.90
42187;DHT22;27858;51.414;0.018;2023-06-10T02:56:52;16.00;99.90
42187;DHT22;27858;51.414;0.018;2023-06-10T02:59:21;16.10;99.90
42187;DHT22;27858;51.414;0.018;2023-06-10T03:01:48;16.10;99.90
42187;DHT22;27858;51.414;0.018;2023-06-10T03:04:15;16.10;99.90
42187;DHT22;27858;51.414;0.018;2023-06-10T03:06:42;16.10;99.90
42187;DHT22;27858;51.414;0.018;2023-06-10T03:09:09;16.10;99.90
42187;DHT22;27858;51.414;0.018;2023-06-10T03:11:36;16.00;99.90
42187;DHT22;27858;51.414;0.018;2023-06-10T03:14:03;16.00;99.90
42187;DHT22;27858;51.414;0.018;2023-06-10T03:16:30;16.00;99.90
42187;DHT22;27858;51.414;0.018;2023-06-10T03:18:58;16.00;99.90
42187;DHT22;27858;51.414;0.018;2023-06-10T03:21:25;16.00;99.90
42187;DHT22;27858;51.414;0.018;2023-06-10T03:23:52;16.00;99.90
42187;DHT22;27858;51.414;0.018;2023-06-10T03:26:19;15.90;99.90
42187;DHT22;27858;51.414;0.018;2023-06-10T03:28:48;15.90;99.90
42187;DHT22;27858;51.414;0.018;2023-06-10T03:31:15;15.90;99.90
42187;DHT22;27858;51.414;0.018;2023-06-10T03:33:43;15.90;99.90
42187;DHT22;27858;51.414;0.018;2023-06-10T03:36:10;15.80;99.90
42187;DHT22;27858;51.414;0.018;2023-06-10T03:38:37;15.80;99.90
42187;DHT22;27858;51.414;0.018;2023-06-10T03:41:04;15.70;99.90
42187;DHT22;27858;51.414;0.018;2023-06-10T03:43:31;15.70;99.90
42187;DHT22;27858;51.414;0.018;2023-06-10T03:45:57;15.70;99.90
42187;DHT22;27858;51.414;0.018;2023-06-10T03:48:25;15.70;99.90
42187;DHT22;27858;51.414;0.018;2023-06-10T03:50:52;15.60;99.90
42187;DHT22;27858;51.414;0.018;2023-06-10T03:53:19;15.60;99.90
42187;DHT22;27858;51.414;0.018;2023-06-10T03:55:45;15.60;99.90
42187;DHT22;27858;51.414;0.018;2023-06-10T03:58:13;15.60;99.90
42187;DHT22;27858;51.414;0.018;2023-06-10T04:00:41;15.60;99.90
42187;DHT22;27858;51.414;0.018;2023-06-10T04:03:09;15.60;99.90
42187;DHT22;27858;51.414;0.018;2023-06-10T04:05:36;15.60;99.90
42187;DHT22;27858;51.414;0.018;2023-06-10T04:08:03;15.60;99.90
42187;DHT22;27858;51.414;0.018;2023-06-10T04:10:30;15.60;99.90
42187;DHT22;27858;51.414;0.018;2023-06-10T04:12:56;15.60;99.90
42187;DHT22;27858;51.414;0.018;2023-06-10T04:15:23;15.70;99.90
42187;DHT22;27858;51.414;0.018;2023-06-10T04:17:50;15.60;99.90
42187;DHT22;27858;51.414;0.018;2023-06-10T04:20:17;15.60;99.90
42187;DHT22;27858;51.414;0.018;2023-06-10T04:22:44;15.60;99.90
42187;DHT22;27858;51.414;0.018;2023-06-10T04:25:11;15.50;99.90
42187;DHT22;27858;51.414;0.018;2023-06-10T04:27:37;15.60;99.90
42187;DHT22;27858;51.414;0.018;2023-06-10T04:30:05;15.60;99.90
42187;DHT22;27858;51.414;0.018;2023-06-10T04:32:32;15.60;99.90
42187;DHT22;27858;51.414;0.018;2023-06-10T04:34:59;15.50;99.90
42187;DHT22;27858;51.414;0.018;2023-06-10T04:37:26;15.60;99.90
42187;DHT22;27858;51.414;0.018;2023-06-10T04:39:55;15.60;99.90
42187;DHT22;27858;51.414;0.018;2023-06-10T04:42:23;15.60;99.90
42187;DHT22;27858;51.414;0.018;2023-06-10T04:44:49;15.60;99.90
42187;DHT22;27858;51.414;0.018;2023-06-10T04:47:16;15.60;99.90
42187;DHT22;27858;51.414;0.018;2023-06-10T04:49:43;15.60;99.90
42187;DHT22;27858;51.414;0.018;2023-06-10T04:52:11;15.60;99.90
42187;DHT22;27858;51.414;0.018;2023-06-10T04:54:37;15.60;99.90
42187;DHT22;27858;51.414;0.018;2023-06-10T04:57:06;15.60;99.90
42187;DHT22;27858;51.414;0.018;2023-06-10T04:59:34;15.70;99.90
42187;DHT22;27858;51.414;0.018;2023-06-10T05:02:04;15.70;99.90
42187;DHT22;27858;51.414;0.018;2023-06-10T05:04:32;15.80;99.90
42187;DHT22;27858;51.414;0.018;2023-06-10T05:06:59;15.80;99.90
42187;DHT22;27858;51.414;0.018;2023-06-10T05:09:25;15.80;99.90
42187;DHT22;27858;51.414;0.018;2023-06-10T05:11:52;15.80;99.90
42187;DHT22;27858;51.414;0.018;2023-06-10T05:14:20;15.90;99.90
42187;DHT22;27858;51.414;0.018;2023-06-10T05:16:48;15.80;99.90
42187;DHT22;27858;51.414;0.018;2023-06-10T05:19:15;15.90;99.90
42187;DHT22;27858;51.414;0.018;2023-06-10T05:21:45;15.90;99.90
42187;DHT22;27858;51.414;0.018;2023-06-10T05:24:12;16.00;99.90
42187;DHT22;27858;51.414;0.018;2023-06-10T05:26:38;16.00;99.90
42187;DHT22;27858;51.414;0.018;2023-06-10T05:29:05;16.10;99.90
42187;DHT22;27858;51.414;0.018;2023-06-10T05:31:32;16.10;99.90
42187;DHT22;27858;51.414;0.018;2023-06-10T05:33:59;16.10;99.90
42187;DHT22;27858;51.414;0.018;2023-06-10T05:36:26;16.20;99.90
42187;DHT22;27858;51.414;0.018;2023-06-10T05:38:53;16.30;99.90
42187;DHT22;27858;51.414;0.018;2023-06-10T05:41:20;16.20;99.90
42187;DHT22;27858;51.414;0.018;2023-06-10T05:43:48;16.20;99.90
42187;DHT22;27858;51.414;0.018;2023-06-10T05:46:15;16.30;99.90
42187;DHT22;27858;51.414;0.018;2023-06-10T05:48:42;16.40;99.90
42187;DHT22;27858;51.414;0.018;2023-06-10T05:51:08;16.50;99.90
42187;DHT22;27858;51.414;0.018;2023-06-10T05:53:36;16.50;99.90
42187;DHT22;27858;51.414;0.018;2023-06-10T05:56:04;16.50;99.90
42187;DHT22;27858;51.414;0.018;2023-06-10T05:58:31;16.60;99.90
42187;DHT22;27858;51.414;0.018;2023-06-10T06:00:58;16.70;99.90
42187;DHT22;27858;51.414;0.018;2023-06-10T06:03:25;16.70;99.90
42187;DHT22;27858;51.414;0.018;2023-06-10T06:05:52;16.70;99.90
42187;DHT22;27858;51.414;0.018;2023-06-10T06:08:19;16.80;99.90
42187;DHT22;27858;51.414;0.018;2023-06-10T06:10:46;16.90;99.90
42187;DHT22;27858;51.414;0.018;2023-06-10T06:13:14;16.90;99.90
42187;DHT22;27858;51.414;0.018;2023-06-10T06:15:41;17.00;99.90
42187;DHT22;27858;51.414;0.018;2023-06-10T06:18:08;17.00;99.90
42187;DHT22;27858;51.414;0.018;2023-06-10T06:20:35;17.10;99.90
42187;DHT22;27858;51.414;0.018;2023-06-10T06:23:02;17.10;99.90
42187;DHT22;27858;51.414;0.018;2023-06-10T06:25:28;17.20;99.90
42187;DHT22;27858;51.414;0.018;2023-06-10T06:27:55;17.30;99.90
42187;DHT22;27858;51.414;0.018;2023-06-10T06:30:22;17.30;99.90
42187;DHT22;27858;51.414;0.018;2023-06-10T06:32:49;17.40;99.90
42187;DHT22;27858;51.414;0.018;2023-06-10T06:35:16;17.50;99.90
42187;DHT22;27858;51.414;0.018;2023-06-10T06:37:43;17.50;99.90
42187;DHT22;27858;51.414;0.018;2023-06-10T06:40:10;17.60;99.90
42187;DHT22;27858;51.414;0.018;2023-06-10T06:42:37;17.60;99.90
42187;DHT22;27858;51.414;0.018;2023-06-10T06:45:04;17.80;99.90
42187;DHT22;27858;51.414;0.018;2023-06-10T06:47:31;17.80;99.90
42187;DHT22;27858;51.414;0.018;2023-06-10T06:49:58;17.90;99.90
42187;DHT22;27858;51.414;0.018;2023-06-10T06:52:25;18.00;99.90
42187;DHT22;27858;51.414;0.018;2023-06-10T06:54:52;18.10;99.90
42187;DHT22;27858;51.414;0.018;2023-06-10T06:57:18;18.20;99.90
42187;DHT22;27858;51.414;0.018;2023-06-10T06:59:45;18.30;99.90
42187;DHT22;27858;51.414;0.018;2023-06-10T07:02:12;18.40;99.90
42187;DHT22;27858;51.414;0.018;2023-06-10T07:04:39;18.50;99.90
42187;DHT22;27858;51.414;0.018;2023-06-10T07:07:08;18.50;99.90
42187;DHT22;27858;51.414;0.018;2023-06-10T07:09:37;18.60;99.90
42187;DHT22;27858;51.414;0.018;2023-06-10T07:12:05;18.80;99.90
42187;DHT22;27858;51.414;0.018;2023-06-10T07:14:32;18.80;99.90
42187;DHT22;27858;51.414;0.018;2023-06-10T07:16:59;18.90;99.90
42187;DHT22;27858;51.414;0.018;2023-06-10T07:19:25;19.10;99.90
42187;DHT22;27858;51.414;0.018;2023-06-10T07:21:52;19.20;99.90
42187;DHT22;27858;51.414;0.018;2023-06-10T07:24:19;19.30;99.90
42187;DHT22;27858;51.414;0.018;2023-06-10T07:26:47;19.30;99.90
42187;DHT22;27858;51.414;0.018;2023-06-10T07:29:13;19.30;99.90
42187;DHT22;27858;51.414;0.018;2023-06-10T07:31:41;19.30;99.90
42187;DHT22;27858;51.414;0.018;2023-06-10T07:34:08;19.40;99.90
42187;DHT22;27858;51.414;0.018;2023-06-10T07:36:35;19.50;99.90
42187;DHT22;27858;51.414;0.018;2023-06-10T07:39:03;19.50;99.90
42187;DHT22;27858;51.414;0.018;2023-06-10T07:41:29;19.60;99.90
42187;DHT22;27858;51.414;0.018;2023-06-10T07:43:56;19.70;99.90
42187;DHT22;27858;51.414;0.018;2023-06-10T07:46:23;19.80;99.90
42187;DHT22;27858;51.414;0.018;2023-06-10T07:48:51;19.80;99.90
42187;DHT22;27858;51.414;0.018;2023-06-10T07:51:18;19.90;99.90
42187;DHT22;27858;51.414;0.018;2023-06-10T07:53:44;20.00;99.90
42187;DHT22;27858;51.414;0.018;2023-06-10T07:56:11;20.10;99.90
42187;DHT22;27858;51.414;0.018;2023-06-10T07:58:38;20.10;99.90
42187;DHT22;27858;51.414;0.018;2023-06-10T08:01:05;20.20;99.90
42187;DHT22;27858;51.414;0.018;2023-06-10T08:03:32;20.30;99.90
42187;DHT22;27858;51.414;0.018;2023-06-10T08:05:59;20.30;99.90
42187;DHT22;27858;51.414;0.018;2023-06-10T08:08:26;20.50;99.90
42187;DHT22;27858;51.414;0.018;2023-06-10T08:10:52;20.50;99.90
42187;DHT22;27858;51.414;0.018;2023-06-10T08:13:19;20.60;99.90
42187;DHT22;27858;51.414;0.018;2023-06-10T08:15:47;20.70;99.90
42187;DHT22;27858;51.414;0.018;2023-06-10T08:18:14;20.80;99.90
42187;DHT22;27858;51.414;0.018;2023-06-10T08:20:41;20.80;99.90
42187;DHT22;27858;51.414;0.018;2023-06-10T08:23:08;20.90;99.90
42187;DHT22;27858;51.414;0.018;2023-06-10T08:25:34;21.10;99.90
42187;DHT22;27858;51.414;0.018;2023-06-10T08:28:01;21.20;99.90
42187;DHT22;27858;51.414;0.018;2023-06-10T08:30:28;21.30;99.90
42187;DHT22;27858;51.414;0.018;2023-06-10T08:32:55;21.30;99.90
42187;DHT22;27858;51.414;0.018;2023-06-10T08:35:22;21.40;99.90
42187;DHT22;27858;51.414;0.018;2023-06-10T08:37:49;21.50;99.90
42187;DHT22;27858;51.414;0.018;2023-06-10T08:40:16;21.60;99.90
42187;DHT22;27858;51.414;0.018;2023-06-10T08:42:48;21.70;99.90
42187;DHT22;27858;51.414;0.018;2023-06-10T08:45:18;21.80;99.90
42187;DHT22;27858;51.414;0.018;2023-06-10T08:47:45;21.90;94.50
42187;DHT22;27858;51.414;0.018;2023-06-10T08:50:16;22.00;91.40
42187;DHT22;27858;51.414;0.018;2023-06-10T08:52:44;22.20;93.70
42187;DHT22;27858;51.414;0.018;2023-06-10T08:55:15;22.30;84.20
42187;DHT22;27858;51.414;0.018;2023-06-10T08:57:42;22.30;72.60
42187;DHT22;27858;51.414;0.018;2023-06-10T09:00:12;22.40;72.00
42187;DHT22;27858;51.414;0.018;2023-06-10T09:02:39;22.50;73.40
42187;DHT22;27858;51.414;0.018;2023-06-10T09:05:08;22.50;51.50
42187;DHT22;27858;51.414;0.018;2023-06-10T09:07:35;22.60;62.30
42187;DHT22;27858;51.414;0.018;2023-06-10T09:10:03;22.80;57.00
42187;DHT22;27858;51.414;0.018;2023-06-10T09:12:34;22.90;42.90
42187;DHT22;27858;51.414;0.018;2023-06-10T09:15:02;23.00;36.90
42187;DHT22;27858;51.414;0.018;2023-06-10T09:17:29;23.10;27.10
42187;DHT22;27858;51.414;0.018;2023-06-10T09:19:56;23.20;32.00
42187;DHT22;27858;51.414;0.018;2023-06-10T09:22:24;23.40;27.10
42187;DHT22;27858;51.414;0.018;2023-06-10T09:25:05;23.50;20.10
42187;DHT22;27858;51.414;0.018;2023-06-10T09:27:50;23.70;18.10
42187;DHT22;27858;51.414;0.018;2023-06-10T09:30:34;23.80;14.40
42187;DHT22;27858;51.414;0.018;2023-06-10T09:33:03;24.00;8.90
42187;DHT22;27858;51.414;0.018;2023-06-10T09:35:35;24.10;2.00
42187;DHT22;27858;51.414;0.018;2023-06-10T09:38:02;24.20;1.00
42187;DHT22;27858;51.414;0.018;2023-06-10T09:40:29;24.30;1.00
42187;DHT22;27858;51.414;0.018;2023-06-10T09:43:00;24.40;1.00
42187;DHT22;27858;51.414;0.018;2023-06-10T09:45:31;24.40;1.00
42187;DHT22;27858;51.414;0.018;2023-06-10T09:47:58;24.60;1.00
42187;DHT22;27858;51.414;0.018;2023-06-10T09:50:25;24.60;1.00
42187;DHT22;27858;51.414;0.018;2023-06-10T09:52:53;24.80;1.00
42187;DHT22;27858;51.414;0.018;2023-06-10T09:55:19;24.80;1.00
42187;DHT22;27858;51.414;0.018;2023-06-10T09:57:49;25.00;1.00
42187;DHT22;27858;51.414;0.018;2023-06-10T10:00:16;25.10;1.00
42187;DHT22;27858;51.414;0.018;2023-06-10T10:02:48;25.20;1.00
42187;DHT22;27858;51.414;0.018;2023-06-10T10:05:17;25.30;1.00
42187;DHT22;27858;51.414;0.018;2023-06-10T10:07:45;25.30;1.00
42187;DHT22;27858;51.414;0.018;2023-06-10T10:10:13;25.40;1.00
42187;DHT22;27858;51.414;0.018;2023-06-10T10:12:42;25.40;99.90
42187;DHT22;27858;51.414;0.018;2023-06-10T10:15:10;25.60;1.00
42187;DHT22;27858;51.414;0.018;2023-06-10T10:20:29;25.70;99.90
42187;DHT22;27858;51.414;0.018;2023-06-10T10:22:58;25.90;99.90
42187;DHT22;27858;51.414;0.018;2023-06-10T10:25:32;25.90;99.90
42187;DHT22;27858;51.414;0.018;2023-06-10T10:28:11;26.00;99.90
42187;DHT22;27858;51.414;0.018;2023-06-10T10:30:42;26.20;99.90
42187;DHT22;27858;51.414;0.018;2023-06-10T10:33:13;26.30;99.90
42187;DHT22;27858;51.414;0.018;2023-06-10T10:35:43;26.20;99.90
42187;DHT22;27858;51.414;0.018;2023-06-10T10:38:11;26.30;99.90
42187;DHT22;27858;51.414;0.018;2023-06-10T10:40:38;26.50;99.90
42187;DHT22;27858;51.414;0.018;2023-06-10T10:43:06;26.60;99.90
42187;DHT22;27858;51.414;0.018;2023-06-10T10:45:34;26.60;99.90
42187;DHT22;27858;51.414;0.018;2023-06-10T10:48:07;26.70;99.90
42187;DHT22;27858;51.414;0.018;2023-06-10T10:50:36;26.80;99.90
42187;DHT22;27858;51.414;0.018;2023-06-10T10:53:04;27.00;99.90
42187;DHT22;27858;51.414;0.018;2023-06-10T10:55:31;27.20;99.90
42187;DHT22;27858;51.414;0.018;2023-06-10T10:58:02;27.30;99.90
42187;DHT22;27858;51.414;0.018;2023-06-10T11:00:34;27.40;99.90
42187;DHT22;27858;51.414;0.018;2023-06-10T11:03:05;27.50;99.90
42187;DHT22;27858;51.414;0.018;2023-06-10T11:05:41;27.50;99.90
42187;DHT22;27858;51.414;0.018;2023-06-10T11:08:11;27.70;99.90
42187;DHT22;27858;51.414;0.018;2023-06-10T11:10:40;27.80;99.90
42187;DHT22;27858;51.414;0.018;2023-06-10T11:13:13;27.80;99.90
42187;DHT22;27858;51.414;0.018;2023-06-10T11:15:44;27.90;99.90
42187;DHT22;27858;51.414;0.018;2023-06-10T11:21:04;28.00;99.90
42187;DHT22;27858;51.414;0.018;2023-06-10T11:31:38;28.60;99.90
42187;DHT22;27858;51.414;0.018;2023-06-10T11:34:08;28.40;99.90
42187;DHT22;27858;51.414;0.018;2023-06-10T11:36:41;28.60;99.90
42187;DHT22;27858;51.414;0.018;2023-06-10T11:39:10;28.50;99.90
42187;DHT22;27858;51.414;0.018;2023-06-10T11:41:37;28.60;99.90
42187;DHT22;27858;51.414;0.018;2023-06-10T11:46:36;28.80;99.90
42187;DHT22;27858;51.414;0.018;2023-06-10T11:49:04;28.80;99.90
42187;DHT22;27858;51.414;0.018;2023-06-10T11:51:39;29.00;99.90
42187;DHT22;27858;51.414;0.018;2023-06-10T11:54:10;29.00;99.90
42187;DHT22;27858;51.414;0.018;2023-06-10T11:56:37;29.20;99.90
42187;DHT22;27858;51.414;0.018;2023-06-10T11:59:07;29.20;99.90
42187;DHT22;27858;51.414;0.018;2023-06-10T12:01:36;29.20;99.90
42187;DHT22;27858;51.414;0.018;2023-06-10T12:04:07;29.30;99.90
42187;DHT22;27858;51.414;0.018;2023-06-10T12:06:41;29.30;99.90
42187;DHT22;27858;51.414;0.018;2023-06-10T12:09:24;29.30;99.90
42187;DHT22;27858;51.414;0.018;2023-06-10T12:20:00;29.90;99.90
42187;DHT22;27858;51.414;0.018;2023-06-10T12:22:42;29.90;99.90
42187;DHT22;27858;51.414;0.018;2023-06-10T12:25:10;30.00;99.90
42187;DHT22;27858;51.414;0.018;2023-06-10T12:27:39;30.10;99.90
42187;DHT22;27858;51.414;0.018;2023-06-10T12:30:07;30.30;99.90
42187;DHT22;27858;51.414;0.018;2023-06-10T12:32:45;30.30;99.90
42187;DHT22;27858;51.414;0.018;2023-06-10T12:35:17;30.30;99.90
42187;DHT22;27858;51.414;0.018;2023-06-10T12:38:04;30.30;99.90
42187;DHT22;27858;51.414;0.018;2023-06-10T12:40:38;30.50;99.90
42187;DHT22;27858;51.414;0.018;2023-06-10T12:43:07;30.50;99.90
42187;DHT22;27858;51.414;0.018;2023-06-10T12:45:38;30.70;99.90
42187;DHT22;27858;51.414;0.018;2023-06-10T12:50:46;30.90;99.90
42187;DHT22;27858;51.414;0.018;2023-06-10T12:53:13;30.90;99.90
42187;DHT22;27858;51.414;0.018;2023-06-10T12:55:40;30.90;99.90
42187;DHT22;27858;51.414;0.018;2023-06-10T12:58:07;31.10;99.90
42187;DHT22;27858;51.414;0.018;2023-06-10T13:00:34;31.30;99.90
42187;DHT22;27858;51.414;0.018;2023-06-10T13:03:02;31.40;99.90
42187;DHT22;27858;51.414;0.018;2023-06-10T13:05:29;31.50;99.90
42187;DHT22;27858;51.414;0.018;2023-06-10T13:07:56;31.70;99.90
42187;DHT22;27858;51.414;0.018;2023-06-10T13:10:24;31.80;99.90
42187;DHT22;27858;51.414;0.018;2023-06-10T13:12:53;32.10;99.90
42187;DHT22;27858;51.414;0.018;2023-06-10T13:15:21;32.20;99.90
42187;DHT22;27858;51.414;0.018;2023-06-10T13:17:48;32.20;99.90
42187;DHT22;27858;51.414;0.018;2023-06-10T13:20:17;32.40;99.90
42187;DHT22;27858;51.414;0.018;2023-06-10T13:22:44;32.60;99.90
42187;DHT22;27858;51.414;0.018;2023-06-10T13:25:11;32.80;99.90
42187;DHT22;27858;51.414;0.018;2023-06-10T13:27:39;32.90;99.90
42187;DHT22;27858;51.414;0.018;2023-06-10T13:30:07;33.10;99.90
42187;DHT22;27858;51.414;0.018;2023-06-10T13:32:34;33.10;99.90
42187;DHT22;27858;51.414;0.018;2023-06-10T13:35:01;33.30;99.90
42187;DHT22;27858;51.414;0.018;2023-06-10T13:37:30;33.10;99.90
42187;DHT22;27858;51.414;0.018;2023-06-10T13:39:57;33.30;99.90
42187;DHT22;27858;51.414;0.018;2023-06-10T13:42:24;33.20;99.90
42187;DHT22;27858;51.414;0.018;2023-06-10T13:44:53;33.30;99.90
42187;DHT22;27858;51.414;0.018;2023-06-10T13:47:19;33.40;99.90
42187;DHT22;27858;51.414;0.018;2023-06-10T13:49:47;33.50;99.90
42187;DHT22;27858;51.414;0.018;2023-06-10T13:52:14;33.50;99.90
42187;DHT22;27858;51.414;0.018;2023-06-10T13:54:41;33.60;99.90
42187;DHT22;27858;51.414;0.018;2023-06-10T13:57:07;33.70;99.90
42187;DHT22;27858;51.414;0.018;2023-06-10T13:59:37;33.70;99.90
42187;DHT22;27858;51.414;0.018;2023-06-10T14:02:04;34.10;99.90
42187;DHT22;27858;51.414;0.018;2023-06-10T14:04:31;34.00;99.90
42187;DHT22;27858;51.414;0.018;2023-06-10T14:06:58;33.90;99.90
42187;DHT22;27858;51.414;0.018;2023-06-10T14:09:25;34.10;99.90
42187;DHT22;27858;51.414;0.018;2023-06-10T14:11:52;34.00;99.90
42187;DHT22;27858;51.414;0.018;2023-06-10T14:14:19;34.20;99.90
42187;DHT22;27858;51.414;0.018;2023-06-10T14:16:46;34.00;99.90
42187;DHT22;27858;51.414;0.018;2023-06-10T14:19:13;34.20;99.90
42187;DHT22;27858;51.414;0.018;2023-06-10T14:21:40;34.30;99.90
42187;DHT22;27858;51.414;0.018;2023-06-10T14:24:07;34.50;99.90
42187;DHT22;27858;51.414;0.018;2023-06-10T14:26:34;34.50;99.90
42187;DHT22;27858;51.414;0.018;2023-06-10T14:29:00;34.70;99.90
42187;DHT22;27858;51.414;0.018;2023-06-10T14:31:29;34.90;99.90
42187;DHT22;27858;51.414;0.018;2023-06-10T14:33:56;35.00;99.90
42187;DHT22;27858;51.414;0.018;2023-06-10T14:36:22;35.40;99.90
42187;DHT22;27858;51.414;0.018;2023-06-10T14:38:49;35.30;99.90
42187;DHT22;27858;51.414;0.018;2023-06-10T14:41:16;35.10;99.90
42187;DHT22;27858;51.414;0.018;2023-06-10T14:43:43;35.30;99.90
42187;DHT22;27858;51.414;0.018;2023-06-10T14:46:10;35.50;99.90
42187;DHT22;27858;51.414;0.018;2023-06-10T14:48:36;35.80;99.90
42187;DHT22;27858;51.414;0.018;2023-06-10T14:51:03;35.80;99.90
42187;DHT22;27858;51.414;0.018;2023-06-10T14:53:30;35.80;99.90
42187;DHT22;27858;51.414;0.018;2023-06-10T14:55:57;35.80;99.90
42187;DHT22;27858;51.414;0.018;2023-06-10T14:58:23;35.60;99.90
42187;DHT22;27858;51.414;0.018;2023-06-10T15:00:50;35.70;99.90
42187;DHT22;27858;51.414;0.018;2023-06-10T15:03:17;35.50;99.90
42187;DHT22;27858;51.414;0.018;2023-06-10T15:05:45;35.70;99.90
42187;DHT22;27858;51.414;0.018;2023-06-10T15:08:11;35.90;99.90
42187;DHT22;27858;51.414;0.018;2023-06-10T15:10:38;35.90;99.90
42187;DHT22;27858;51.414;0.018;2023-06-10T15:13:05;35.90;99.90
42187;DHT22;27858;51.414;0.018;2023-06-10T15:15:32;36.00;99.90
42187;DHT22;27858;51.414;0.018;2023-06-10T15:17:59;36.10;99.90
42187;DHT22;27858;51.414;0.018;2023-06-10T15:20:25;36.30;99.90
42187;DHT22;27858;51.414;0.018;2023-06-10T15:22:52;36.50;99.90
42187;DHT22;27858;51.414;0.018;2023-06-10T15:25:20;36.60;99.90
42187;DHT22;27858;51.414;0.018;2023-06-10T15:27:57;36.80;99.90
42187;DHT22;27858;51.414;0.018;2023-06-10T15:30:24;36.60;99.90
42187;DHT22;27858;51.414;0.018;2023-06-10T15:32:51;36.60;99.90
42187;DHT22;27858;51.414;0.018;2023-06-10T15:35:18;36.60;99.90
42187;DHT22;27858;51.414;0.018;2023-06-10T15:37:45;36.70;99.90
42187;DHT22;27858;51.414;0.018;2023-06-10T15:40:12;36.90;99.90
42187;DHT22;27858;51.414;0.018;2023-06-10T15:42:38;36.90;99.90
42187;DHT22;27858;51.414;0.018;2023-06-10T15:45:06;37.10;99.90
42187;DHT22;27858;51.414;0.018;2023-06-10T15:47:33;37.20;99.90
42187;DHT22;27858;51.414;0.018;2023-06-10T15:50:00;36.90;99.90
42187;DHT22;27858;51.414;0.018;2023-06-10T15:52:27;36.80;99.90
42187;DHT22;27858;51.414;0.018;2023-06-10T15:54:54;36.60;99.90
42187;DHT22;27858;51.414;0.018;2023-06-10T15:57:20;36.70;99.90
42187;DHT22;27858;51.414;0.018;2023-06-10T15:59:52;37.20;99.90
42187;DHT22;27858;51.414;0.018;2023-06-10T16:02:19;36.70;99.90
42187;DHT22;27858;51.414;0.018;2023-06-10T16:04:46;36.70;99.90
42187;DHT22;27858;51.414;0.018;2023-06-10T16:07:13;36.70;99.90